createdAt,value
2023-05-19T00:00:08.976Z,0.00
2023-05-19T00:01:08.942Z,0.00
2023-05-19T00:02:08.957Z,0.00
2023-05-19T00:03:09.192Z,0.00
2023-05-19T00:04:08.930Z,0.00
2023-05-19T00:05:08.891Z,0.00
2023-05-19T00:06:09.030Z,0.00
2023-05-19T00:07:08.875Z,0.00
2023-05-19T00:08:08.887Z,0.00
2023-05-19T00:09:08.870Z,0.00
2023-05-19T00:10:08.852Z,0.00
2023-05-19T00:11:08.827Z,0.00
2023-05-19T00:12:08.826Z,0.00
2023-05-19T00:13:08.831Z,0.00
2023-05-19T00:14:08.820Z,0.00
2023-05-19T00:15:08.809Z,0.00
2023-05-19T00:16:08.899Z,0.00
2023-05-19T00:17:08.789Z,0.00
2023-05-19T00:18:08.857Z,0.00
2023-05-19T00:19:08.802Z,0.00
2023-05-19T00:20:08.762Z,0.00
2023-05-19T00:21:08.734Z,0.00
2023-05-19T00:22:08.717Z,0.00
2023-05-19T00:23:08.730Z,0.00
2023-05-19T00:24:08.689Z,0.00
2023-05-19T00:25:08.682Z,0.00
2023-05-19T00:26:08.691Z,0.00
2023-05-19T00:27:08.686Z,0.00
2023-05-19T00:28:08.685Z,0.00
2023-05-19T00:29:08.645Z,0.00
2023-05-19T00:30:08.638Z,0.00
2023-05-19T00:31:08.611Z,0.00
2023-05-19T00:32:08.700Z,0.00
2023-05-19T00:33:08.679Z,0.00
2023-05-19T00:34:08.607Z,0.00
2023-05-19T00:35:08.577Z,0.00
2023-05-19T00:36:08.564Z,0.00
2023-05-19T00:37:08.576Z,0.00
2023-05-19T00:38:08.535Z,0.00
2023-05-19T00:39:08.551Z,0.00
2023-05-19T00:40:08.520Z,0.00
2023-05-19T00:41:08.507Z,0.00
2023-05-19T00:42:08.516Z,0.00
2023-05-19T00:43:08.498Z,0.00
2023-05-19T00:44:08.474Z,0.00
2023-05-19T00:45:08.480Z,0.00
2023-05-19T00:46:08.501Z,0.00
2023-05-19T00:47:08.679Z,0.00
2023-05-19T00:48:08.471Z,0.00
2023-05-19T00:49:08.433Z,0.00
2023-05-19T00:50:08.425Z,0.00
2023-05-19T00:51:08.428Z,0.00
2023-05-19T00:52:08.410Z,0.00
2023-05-19T00:53:08.404Z,0.00
2023-05-19T00:54:08.382Z,0.00
2023-05-19T00:55:08.370Z,0.00
2023-05-19T00:56:08.369Z,0.00
2023-05-19T00:57:08.333Z,0.00
2023-05-19T00:58:08.325Z,0.00
2023-05-19T00:59:08.314Z,0.00
2023-05-19T01:00:08.345Z,0.00
2023-05-19T01:01:08.339Z,0.00
2023-05-19T01:02:08.288Z,0.00
2023-05-19T01:03:08.358Z,0.00
2023-05-19T01:04:08.338Z,0.00
2023-05-19T01:05:08.306Z,0.00
2023-05-19T01:06:08.399Z,0.00
2023-05-19T01:07:08.245Z,0.00
2023-05-19T01:08:08.231Z,0.00
2023-05-19T01:09:08.221Z,0.00
2023-05-19T01:10:08.223Z,0.00
2023-05-19T01:11:08.272Z,0.00
2023-05-19T01:12:08.181Z,0.00
2023-05-19T01:13:08.184Z,0.00
2023-05-19T01:14:08.174Z,0.00
2023-05-19T01:15:08.163Z,0.00
2023-05-19T01:16:08.161Z,0.00
2023-05-19T01:17:08.124Z,0.00
2023-05-19T01:18:08.195Z,0.00
2023-05-19T01:19:08.183Z,0.00
2023-05-19T01:20:08.121Z,0.00
2023-05-19T01:21:08.082Z,0.00
2023-05-19T01:22:08.078Z,0.00
2023-05-19T01:23:08.062Z,0.00
2023-05-19T01:24:08.072Z,0.00
2023-05-19T01:25:08.050Z,0.00
2023-05-19T01:26:08.030Z,0.00
2023-05-19T01:27:08.017Z,0.00
2023-05-19T01:28:08.015Z,0.00
2023-05-19T01:29:08.015Z,0.00
2023-05-19T01:30:08.020Z,0.00
2023-05-19T01:31:07.985Z,0.00
2023-05-19T01:32:08.177Z,0.00
2023-05-19T01:33:08.120Z,0.00
2023-05-19T01:34:07.941Z,0.00
2023-05-19T01:35:07.930Z,0.00
2023-05-19T01:36:07.925Z,0.00
2023-05-19T01:37:07.963Z,0.00
2023-05-19T01:38:07.929Z,0.00
2023-05-19T01:39:07.897Z,0.00
2023-05-19T01:40:07.921Z,0.00
2023-05-19T01:41:07.867Z,0.00
2023-05-19T01:42:07.865Z,0.00
2023-05-19T01:43:07.884Z,0.00
2023-05-19T01:44:07.854Z,0.00
2023-05-19T01:45:07.831Z,0.00
2023-05-19T01:46:07.874Z,0.00
2023-05-19T01:47:07.858Z,0.00
2023-05-19T01:48:10.675Z,0.00
2023-05-19T01:49:07.824Z,0.00
2023-05-19T01:50:07.776Z,0.00
2023-05-19T01:51:07.778Z,0.00
2023-05-19T01:52:07.774Z,0.00
2023-05-19T01:53:07.768Z,0.00
2023-05-19T01:54:07.738Z,0.00
2023-05-19T01:55:07.739Z,0.00
2023-05-19T01:56:07.720Z,0.00
2023-05-19T01:57:07.734Z,0.00
2023-05-19T01:58:07.718Z,0.00
2023-05-19T01:59:07.691Z,0.00
2023-05-19T02:00:07.678Z,0.00
2023-05-19T02:01:07.732Z,0.00
2023-05-19T02:02:07.670Z,0.00
2023-05-19T02:03:07.765Z,0.00
2023-05-19T02:04:07.668Z,0.00
2023-05-19T02:05:07.626Z,0.00
2023-05-19T02:06:07.655Z,0.00
2023-05-19T02:07:07.641Z,0.00
2023-05-19T02:08:07.587Z,0.00
2023-05-19T02:09:07.593Z,0.00
2023-05-19T02:10:07.595Z,0.00
2023-05-19T02:11:07.623Z,0.00
2023-05-19T02:12:07.563Z,0.00
2023-05-19T02:13:07.540Z,0.00
2023-05-19T02:14:07.525Z,0.00
2023-05-19T02:15:07.520Z,0.00
2023-05-19T02:16:07.623Z,0.00
2023-05-19T02:17:07.508Z,0.00
2023-05-19T02:18:07.484Z,0.00
2023-05-19T02:19:08.339Z,0.00
2023-05-19T02:20:07.501Z,0.00
2023-05-19T02:21:07.497Z,0.00
2023-05-19T02:22:07.438Z,0.00
2023-05-19T02:23:07.475Z,0.00
2023-05-19T02:24:07.446Z,0.00
2023-05-19T02:25:07.430Z,0.00
2023-05-19T02:26:07.429Z,0.00
2023-05-19T02:27:07.394Z,0.00
2023-05-19T02:28:07.387Z,0.00
2023-05-19T02:29:07.366Z,0.00
2023-05-19T02:30:07.421Z,0.00
2023-05-19T02:31:07.351Z,0.00
2023-05-19T02:32:07.420Z,0.00
2023-05-19T02:33:07.370Z,0.00
2023-05-19T02:34:07.408Z,0.00
2023-05-19T02:35:07.338Z,0.00
2023-05-19T02:36:07.324Z,0.00
2023-05-19T02:37:07.279Z,0.00
2023-05-19T02:38:07.274Z,0.00
2023-05-19T02:39:07.281Z,0.00
2023-05-19T02:40:07.257Z,0.00
2023-05-19T02:41:07.252Z,0.00
2023-05-19T02:42:07.242Z,0.00
2023-05-19T02:43:07.243Z,0.00
2023-05-19T02:44:07.220Z,0.00
2023-05-19T02:45:07.205Z,0.00
2023-05-19T02:46:07.273Z,0.00
2023-05-19T02:47:07.196Z,0.00
2023-05-19T02:48:07.257Z,0.00
2023-05-19T02:49:07.206Z,0.00
2023-05-19T02:50:07.161Z,0.00
2023-05-19T02:51:07.150Z,0.00
2023-05-19T02:52:07.196Z,0.00
2023-05-19T02:53:07.183Z,0.00
2023-05-19T02:54:07.101Z,0.00
2023-05-19T02:55:07.091Z,0.00
2023-05-19T02:56:07.081Z,0.00
2023-05-19T02:57:07.092Z,0.00
2023-05-19T02:58:07.078Z,0.00
2023-05-19T02:59:07.054Z,0.00
2023-05-19T03:00:07.058Z,0.00
2023-05-19T03:01:07.038Z,0.00
2023-05-19T03:02:07.127Z,0.00
2023-05-19T03:03:07.143Z,0.00
2023-05-19T03:04:07.099Z,0.00
2023-05-19T03:05:07.000Z,0.00
2023-05-19T03:06:06.969Z,0.00
2023-05-19T03:07:06.980Z,0.00
2023-05-19T03:08:06.949Z,0.00
2023-05-19T03:09:06.950Z,0.00
2023-05-19T03:10:06.933Z,0.00
2023-05-19T03:11:06.930Z,0.00
2023-05-19T03:12:06.927Z,0.00
2023-05-19T03:13:06.910Z,0.00
2023-05-19T03:14:06.893Z,0.00
2023-05-19T03:15:06.898Z,0.00
2023-05-19T03:16:06.912Z,0.00
2023-05-19T03:17:06.902Z,0.00
2023-05-19T03:18:06.883Z,0.00
2023-05-19T03:19:06.865Z,0.00
2023-05-19T03:20:06.835Z,0.00
2023-05-19T03:21:06.840Z,0.00
2023-05-19T03:22:06.806Z,0.00
2023-05-19T03:23:06.818Z,0.00
2023-05-19T03:24:06.816Z,0.00
2023-05-19T03:25:06.781Z,0.00
2023-05-19T03:26:06.786Z,0.00
2023-05-19T03:27:06.798Z,0.00
2023-05-19T03:28:06.748Z,0.00
2023-05-19T03:29:06.738Z,0.00
2023-05-19T03:30:06.909Z,1.00
2023-05-19T03:31:06.685Z,1.00
2023-05-19T03:32:06.700Z,1.00
2023-05-19T03:33:06.743Z,1.00
2023-05-19T03:34:06.664Z,1.00
2023-05-19T03:35:06.702Z,0.00
2023-05-19T03:36:06.670Z,0.00
2023-05-19T03:37:06.656Z,0.00
2023-05-19T03:38:06.648Z,0.00
2023-05-19T03:39:06.640Z,0.00
2023-05-19T03:40:06.644Z,0.00
2023-05-19T03:41:06.611Z,0.00
2023-05-19T03:42:06.603Z,0.00
2023-05-19T03:43:06.603Z,0.00
2023-05-19T03:44:06.601Z,0.00
2023-05-19T03:45:06.550Z,2.00
2023-05-19T03:46:06.539Z,1.00
2023-05-19T03:47:06.558Z,0.00
2023-05-19T03:48:06.564Z,0.00
2023-05-19T03:49:06.552Z,0.00
2023-05-19T03:50:06.519Z,0.00
2023-05-19T03:51:06.539Z,0.00
2023-05-19T03:52:06.440Z,1.00
2023-05-19T03:53:06.432Z,1.00
2023-05-19T03:54:06.439Z,1.00
2023-05-19T03:55:06.409Z,1.00
2023-05-19T03:56:06.397Z,1.00
2023-05-19T03:57:06.408Z,1.00
2023-05-19T03:58:06.408Z,1.00
2023-05-19T03:59:06.391Z,1.00
2023-05-19T04:00:06.405Z,0.00
2023-05-19T04:01:06.403Z,0.00
2023-05-19T04:02:07.753Z,0.00
2023-05-19T04:03:06.532Z,0.00
2023-05-19T04:04:06.384Z,0.00
2023-05-19T04:05:06.357Z,0.00
2023-05-19T04:06:06.351Z,0.00
2023-05-19T04:07:06.337Z,0.00
2023-05-19T04:08:06.312Z,2.00
2023-05-19T04:09:06.262Z,2.00
2023-05-19T04:10:06.244Z,2.00
2023-05-19T04:11:06.245Z,1.00
2023-05-19T04:12:06.262Z,2.00
2023-05-19T04:13:06.238Z,2.00
2023-05-19T04:14:06.207Z,2.00
2023-05-19T04:15:06.214Z,4.00
2023-05-19T04:16:06.253Z,4.00
2023-05-19T04:17:06.194Z,4.00
2023-05-19T04:18:06.194Z,3.00
2023-05-19T04:19:06.253Z,3.00
2023-05-19T04:20:06.148Z,3.00
2023-05-19T04:21:06.136Z,3.00
2023-05-19T04:22:06.172Z,3.00
2023-05-19T04:23:06.118Z,5.00
2023-05-19T04:24:06.120Z,4.00
2023-05-19T04:25:06.097Z,2.00
2023-05-19T04:26:06.099Z,3.00
2023-05-19T04:27:06.171Z,5.00
2023-05-19T04:28:06.056Z,3.00
2023-05-19T04:29:06.056Z,2.00
2023-05-19T04:30:06.045Z,1.00
2023-05-19T04:31:06.079Z,2.00
2023-05-19T04:32:06.022Z,2.00
2023-05-19T04:33:06.018Z,1.00
2023-05-19T04:34:06.008Z,2.00
2023-05-19T04:35:05.990Z,2.00
2023-05-19T04:36:05.993Z,2.00
2023-05-19T04:37:05.986Z,2.00
2023-05-19T04:38:05.957Z,2.00
2023-05-19T04:39:05.943Z,2.00
2023-05-19T04:40:05.953Z,4.00
2023-05-19T04:41:05.937Z,4.00
2023-05-19T04:42:05.915Z,2.00
2023-05-19T04:43:05.896Z,2.00
2023-05-19T04:44:05.886Z,2.00
2023-05-19T04:45:05.889Z,2.00
2023-05-19T04:46:05.924Z,6.00
2023-05-19T04:47:05.879Z,4.00
2023-05-19T04:48:05.896Z,2.00
2023-05-19T04:49:05.832Z,2.00
2023-05-19T04:50:05.867Z,2.00
2023-05-19T04:51:05.821Z,2.00
2023-05-19T04:52:05.822Z,2.00
2023-05-19T04:53:05.792Z,4.00
2023-05-19T04:54:05.806Z,4.00
2023-05-19T04:55:05.785Z,5.00
2023-05-19T04:56:05.772Z,3.00
2023-05-19T04:57:05.755Z,5.00
2023-05-19T04:58:05.752Z,5.00
2023-05-19T04:59:05.742Z,6.00
2023-05-19T05:00:05.726Z,4.00
2023-05-19T05:01:05.728Z,5.00
2023-05-19T05:02:05.784Z,5.00
2023-05-19T05:03:05.790Z,8.00
2023-05-19T05:04:05.809Z,5.00
2023-05-19T05:05:05.665Z,6.00
2023-05-19T05:06:05.655Z,4.00
2023-05-19T05:07:05.644Z,6.00
2023-05-19T05:08:05.917Z,6.00
2023-05-19T05:09:05.635Z,6.00
2023-05-19T05:10:05.621Z,6.00
2023-05-19T05:11:05.612Z,7.00
2023-05-19T05:12:05.591Z,6.00
2023-05-19T05:13:05.599Z,4.00
2023-05-19T05:14:05.567Z,7.00
2023-05-19T05:15:05.563Z,10.00
2023-05-19T05:16:05.558Z,6.00
2023-05-19T05:17:05.524Z,5.00
2023-05-19T05:18:05.575Z,7.00
2023-05-19T05:19:05.558Z,7.00
2023-05-19T05:20:05.513Z,5.00
2023-05-19T05:21:05.492Z,5.00
2023-05-19T05:22:05.507Z,7.00
2023-05-19T05:23:05.493Z,6.00
2023-05-19T05:24:05.461Z,6.00
2023-05-19T05:25:05.472Z,5.00
2023-05-19T05:26:05.437Z,9.00
2023-05-19T05:27:05.442Z,7.00
2023-05-19T05:28:05.500Z,3.00
2023-05-19T05:29:05.406Z,4.00
2023-05-19T05:30:05.390Z,5.00
2023-05-19T05:31:05.380Z,4.00
2023-05-19T05:32:05.416Z,4.00
2023-05-19T05:33:05.485Z,4.00
2023-05-19T05:34:05.367Z,6.00
2023-05-19T05:35:05.343Z,8.00
2023-05-19T05:36:05.350Z,6.00
2023-05-19T05:37:05.337Z,4.00
2023-05-19T05:38:05.332Z,4.00
2023-05-19T05:39:05.303Z,5.00
2023-05-19T05:40:05.310Z,12.00
2023-05-19T05:41:05.309Z,8.00
2023-05-19T05:42:05.271Z,10.00
2023-05-19T05:43:05.256Z,9.00
2023-05-19T05:44:05.242Z,6.00
2023-05-19T05:45:05.233Z,5.00
2023-05-19T05:46:05.347Z,6.00
2023-05-19T05:47:05.299Z,8.00
2023-05-19T05:48:05.247Z,24.00
2023-05-19T05:49:05.304Z,9.00
2023-05-19T05:50:05.320Z,11.00
2023-05-19T05:51:05.279Z,10.00
2023-05-19T05:52:06.815Z,7.00
2023-05-19T05:53:05.150Z,8.00
2023-05-19T05:54:05.164Z,7.00
2023-05-19T05:55:05.150Z,8.00
2023-05-19T05:56:05.126Z,12.00
2023-05-19T05:57:05.110Z,10.00
2023-05-19T05:58:05.103Z,10.00
2023-05-19T05:59:05.118Z,10.00
2023-05-19T06:00:05.126Z,10.00
2023-05-19T06:01:05.074Z,10.00
2023-05-19T06:02:05.147Z,10.00
2023-05-19T06:03:05.209Z,10.00
2023-05-19T06:04:05.062Z,10.00
2023-05-19T06:05:05.056Z,10.00
2023-05-19T06:06:05.192Z,10.00
2023-05-19T06:07:05.005Z,10.00
2023-05-19T06:08:05.024Z,7.00
2023-05-19T06:09:05.001Z,7.00
2023-05-19T06:10:04.984Z,7.00
2023-05-19T06:11:04.978Z,11.00
2023-05-19T06:12:04.970Z,15.00
2023-05-19T06:13:04.953Z,11.00
2023-05-19T06:14:04.968Z,12.00
2023-05-19T06:15:04.932Z,8.00
2023-05-19T06:16:04.957Z,16.00
2023-05-19T06:17:04.903Z,15.00
2023-05-19T06:18:04.945Z,11.00
2023-05-19T06:19:04.955Z,11.00
2023-05-19T06:20:04.871Z,19.00
2023-05-19T06:21:04.869Z,8.00
2023-05-19T06:22:04.860Z,9.00
2023-05-19T06:23:04.865Z,22.00
2023-05-19T06:24:04.848Z,21.00
2023-05-19T06:25:04.816Z,8.00
2023-05-19T06:26:04.825Z,10.00
2023-05-19T06:27:04.794Z,11.00
2023-05-19T06:28:04.809Z,13.00
2023-05-19T06:29:04.795Z,20.00
2023-05-19T06:30:04.772Z,15.00
2023-05-19T06:31:04.789Z,16.00
2023-05-19T06:32:04.773Z,23.00
2023-05-19T06:33:04.807Z,34.00
2023-05-19T06:34:04.736Z,12.00
2023-05-19T06:35:04.755Z,32.00
2023-05-19T06:36:04.786Z,17.00
2023-05-19T06:37:04.714Z,14.00
2023-05-19T06:38:04.692Z,16.00
2023-05-19T06:39:04.681Z,8.00
2023-05-19T06:40:04.669Z,10.00
2023-05-19T06:41:04.657Z,13.00
2023-05-19T06:42:04.685Z,38.00
2023-05-19T06:43:04.631Z,12.00
2023-05-19T06:44:04.647Z,14.00
2023-05-19T06:45:04.611Z,16.00
2023-05-19T06:46:04.614Z,22.00
2023-05-19T06:47:04.720Z,31.00
2023-05-19T06:48:04.622Z,13.00
2023-05-19T06:49:04.572Z,30.00
2023-05-19T06:50:04.563Z,17.00
2023-05-19T06:51:04.576Z,17.00
2023-05-19T06:52:04.545Z,20.00
2023-05-19T06:53:04.536Z,14.00
2023-05-19T06:54:04.518Z,14.00
2023-05-19T06:55:04.505Z,13.00
2023-05-19T06:56:04.521Z,12.00
2023-05-19T06:57:04.484Z,15.00
2023-05-19T06:58:04.472Z,20.00
2023-05-19T06:59:04.476Z,27.00
2023-05-19T07:00:04.489Z,12.00
2023-05-19T07:01:04.450Z,13.00
2023-05-19T07:02:04.456Z,14.00
2023-05-19T07:03:04.486Z,18.00
2023-05-19T07:04:04.546Z,16.00
2023-05-19T07:05:04.414Z,18.00
2023-05-19T07:06:07.089Z,27.00
2023-05-19T07:07:04.386Z,16.00
2023-05-19T07:08:04.373Z,42.00
2023-05-19T07:09:04.362Z,13.00
2023-05-19T07:10:04.371Z,17.00
2023-05-19T07:11:04.336Z,21.00
2023-05-19T07:12:04.327Z,18.00
2023-05-19T07:13:04.314Z,19.00
2023-05-19T07:14:04.327Z,20.00
2023-05-19T07:15:04.327Z,19.00
2023-05-19T07:16:04.307Z,19.00
2023-05-19T07:17:04.265Z,19.00
2023-05-19T07:18:04.291Z,19.00
2023-05-19T07:19:04.289Z,20.00
2023-05-19T07:20:04.236Z,19.00
2023-05-19T07:21:04.236Z,20.00
2023-05-19T07:22:04.227Z,20.00
2023-05-19T07:23:04.205Z,24.00
2023-05-19T07:24:04.216Z,22.00
2023-05-19T07:25:04.178Z,22.00
2023-05-19T07:26:04.180Z,23.00
2023-05-19T07:27:04.178Z,24.00
2023-05-19T07:28:04.193Z,21.00
2023-05-19T07:29:04.167Z,21.00
2023-05-19T07:30:04.146Z,22.00
2023-05-19T07:31:04.130Z,21.00
2023-05-19T07:32:04.133Z,21.00
2023-05-19T07:33:04.170Z,21.00
2023-05-19T07:34:04.094Z,21.00
2023-05-19T07:35:04.086Z,24.00
2023-05-19T07:36:04.094Z,26.00
2023-05-19T07:37:04.057Z,25.00
2023-05-19T07:38:04.094Z,24.00
2023-05-19T07:39:04.049Z,23.00
2023-05-19T07:40:04.048Z,23.00
2023-05-19T07:41:04.020Z,24.00
2023-05-19T07:42:04.027Z,26.00
2023-05-19T07:43:04.011Z,27.00
2023-05-19T07:44:03.990Z,24.00
2023-05-19T07:45:03.966Z,23.00
2023-05-19T07:46:04.048Z,24.00
2023-05-19T07:47:03.965Z,25.00
2023-05-19T07:48:03.988Z,24.00
2023-05-19T07:49:03.937Z,24.00
2023-05-19T07:50:03.937Z,27.00
2023-05-19T07:51:03.970Z,29.00
2023-05-19T07:52:03.921Z,26.00
2023-05-19T07:53:03.888Z,25.00
2023-05-19T07:54:03.894Z,26.00
2023-05-19T07:55:03.871Z,30.00
2023-05-19T07:56:03.856Z,29.00
2023-05-19T07:57:03.869Z,29.00
2023-05-19T07:58:03.836Z,32.00
2023-05-19T07:59:03.830Z,26.00
2023-05-19T08:00:03.808Z,30.00
2023-05-19T08:01:03.830Z,29.00
2023-05-19T08:02:03.834Z,29.00
2023-05-19T08:03:03.835Z,32.00
2023-05-19T08:04:03.904Z,33.00
2023-05-19T08:05:03.756Z,30.00
2023-05-19T08:06:03.782Z,29.00
2023-05-19T08:07:03.747Z,35.00
2023-05-19T08:08:03.734Z,38.00
2023-05-19T08:09:03.721Z,37.00
2023-05-19T08:10:03.714Z,34.00
2023-05-19T08:11:03.724Z,35.00
2023-05-19T08:12:03.698Z,34.00
2023-05-19T08:13:03.674Z,35.00
2023-05-19T08:14:03.669Z,34.00
2023-05-19T08:15:03.701Z,37.00
2023-05-19T08:16:03.701Z,39.00
2023-05-19T08:17:03.628Z,38.00
2023-05-19T08:18:03.691Z,39.00
2023-05-19T08:19:03.660Z,37.00
2023-05-19T08:20:03.740Z,44.00
2023-05-19T08:21:03.587Z,41.00
2023-05-19T08:22:03.585Z,42.00
2023-05-19T08:23:03.577Z,58.00
2023-05-19T08:24:03.601Z,32.00
2023-05-19T08:25:03.591Z,46.00
2023-05-19T08:26:03.551Z,41.00
2023-05-19T08:27:03.543Z,47.00
2023-05-19T08:28:03.532Z,45.00
2023-05-19T08:29:03.526Z,45.00
2023-05-19T08:30:03.524Z,46.00
2023-05-19T08:31:03.507Z,47.00
2023-05-19T08:32:03.487Z,48.00
2023-05-19T08:33:03.487Z,48.00
2023-05-19T08:34:03.484Z,52.00
2023-05-19T08:35:03.459Z,51.00
2023-05-19T08:36:03.433Z,55.00
2023-05-19T08:37:03.422Z,60.00
2023-05-19T08:38:03.420Z,63.00
2023-05-19T08:39:03.420Z,67.00
2023-05-19T08:40:03.397Z,67.00
2023-05-19T08:41:03.390Z,75.00
2023-05-19T08:42:03.374Z,70.00
2023-05-19T08:43:03.399Z,81.00
2023-05-19T08:44:03.366Z,99.00
2023-05-19T08:45:03.336Z,98.00
2023-05-19T08:46:03.328Z,78.00
2023-05-19T08:47:03.507Z,92.00
2023-05-19T08:48:03.330Z,103.00
2023-05-19T08:49:03.297Z,96.00
2023-05-19T08:50:03.307Z,96.00
2023-05-19T08:51:03.275Z,94.00
2023-05-19T08:52:03.258Z,166.00
2023-05-19T08:53:03.281Z,47.00
2023-05-19T08:54:03.243Z,84.00
2023-05-19T08:55:03.238Z,100.00
2023-05-19T08:56:03.215Z,92.00
2023-05-19T08:57:03.233Z,88.00
2023-05-19T08:58:03.218Z,94.00
2023-05-19T08:59:03.183Z,83.00
2023-05-19T09:00:03.184Z,99.00
2023-05-19T09:01:03.198Z,108.00
2023-05-19T09:02:03.167Z,98.00
2023-05-19T09:03:17.363Z,100.00
2023-05-19T09:04:04.197Z,81.00
2023-05-19T09:05:03.291Z,87.00
2023-05-19T09:06:03.171Z,94.00
2023-05-19T09:07:03.131Z,93.00
2023-05-19T09:08:03.086Z,79.00
2023-05-19T09:09:03.087Z,84.00
2023-05-19T09:10:03.080Z,157.00
2023-05-19T09:11:03.089Z,68.00
2023-05-19T09:12:03.065Z,78.00
2023-05-19T09:13:03.053Z,172.00
2023-05-19T09:14:03.027Z,54.00
2023-05-19T09:15:03.042Z,21.00
2023-05-19T09:16:03.078Z,28.00
2023-05-19T09:17:03.079Z,162.00
2023-05-19T09:18:03.016Z,50.00
2023-05-19T09:19:03.005Z,24.00
2023-05-19T09:20:02.975Z,25.00
2023-05-19T09:21:03.361Z,39.00
2023-05-19T09:22:02.945Z,222.00
2023-05-19T09:23:02.944Z,36.00
2023-05-19T09:24:02.931Z,194.00
2023-05-19T09:25:02.926Z,48.00
2023-05-19T09:26:02.916Z,36.00
2023-05-19T09:27:02.916Z,260.00
2023-05-19T09:28:02.902Z,44.00
2023-05-19T09:29:02.895Z,73.00
2023-05-19T09:30:02.962Z,242.00
2023-05-19T09:31:03.881Z,58.00
2023-05-19T09:32:02.879Z,27.00
2023-05-19T09:33:02.863Z,147.00
2023-05-19T09:34:02.820Z,26.00
2023-05-19T09:35:02.827Z,101.00
2023-05-19T09:36:02.801Z,47.00
2023-05-19T09:37:02.790Z,31.00
2023-05-19T09:38:02.782Z,60.00
2023-05-19T09:39:02.766Z,306.00
2023-05-19T09:40:02.777Z,205.00
2023-05-19T09:41:02.757Z,43.00
2023-05-19T09:42:02.734Z,35.00
2023-05-19T09:43:02.745Z,35.00
2023-05-19T09:44:02.734Z,30.00
2023-05-19T09:45:02.824Z,20.00
2023-05-19T09:46:02.756Z,23.00
2023-05-19T09:47:02.690Z,29.00
2023-05-19T09:48:02.718Z,49.00
2023-05-19T09:49:02.695Z,84.00
2023-05-19T09:50:02.650Z,179.00
2023-05-19T09:51:02.705Z,298.00
2023-05-19T09:52:02.627Z,62.00
2023-05-19T09:53:02.621Z,41.00
2023-05-19T09:54:02.628Z,157.00
2023-05-19T09:55:02.619Z,200.00
2023-05-19T09:56:02.592Z,67.00
2023-05-19T09:57:02.611Z,102.00
2023-05-19T09:58:02.585Z,214.00
2023-05-19T09:59:02.607Z,97.00
2023-05-19T10:00:02.549Z,159.00
2023-05-19T10:01:02.578Z,352.00
2023-05-19T10:02:03.009Z,52.00
2023-05-19T10:03:02.553Z,256.00
2023-05-19T10:04:03.802Z,41.00
2023-05-19T10:05:02.552Z,74.00
2023-05-19T10:06:02.495Z,328.00
2023-05-19T10:07:02.492Z,66.00
2023-05-19T10:08:02.479Z,164.00
2023-05-19T10:09:02.450Z,159.00
2023-05-19T10:10:02.438Z,157.00
2023-05-19T10:11:02.443Z,183.00
2023-05-19T10:12:02.444Z,264.00
2023-05-19T10:13:02.436Z,47.00
2023-05-19T10:14:02.411Z,33.00
2023-05-19T10:15:02.412Z,37.00
2023-05-19T10:16:02.635Z,69.00
2023-05-19T10:17:02.462Z,187.00
2023-05-19T10:18:02.415Z,276.00
2023-05-19T10:19:02.461Z,73.00
2023-05-19T10:20:02.366Z,334.00
2023-05-19T10:21:02.334Z,55.00
2023-05-19T10:22:02.338Z,295.00
2023-05-19T10:23:02.333Z,72.00
2023-05-19T10:24:02.280Z,40.00
2023-05-19T10:25:02.297Z,154.00
2023-05-19T10:26:02.300Z,62.00
2023-05-19T10:27:02.290Z,39.00
2023-05-19T10:28:02.278Z,214.00
2023-05-19T10:29:02.264Z,36.00
2023-05-19T10:30:02.233Z,56.00
2023-05-19T10:31:02.244Z,37.00
2023-05-19T10:32:02.246Z,27.00
2023-05-19T10:33:02.242Z,66.00
2023-05-19T10:34:02.180Z,47.00
2023-05-19T10:35:02.184Z,200.00
2023-05-19T10:36:02.187Z,147.00
2023-05-19T10:37:02.151Z,128.00
2023-05-19T10:38:02.140Z,154.00
2023-05-19T10:39:02.146Z,152.00
2023-05-19T10:40:02.155Z,154.00
2023-05-19T10:41:02.128Z,151.00
2023-05-19T10:42:02.097Z,151.00
2023-05-19T10:43:02.090Z,146.00
2023-05-19T10:44:02.088Z,146.00
2023-05-19T10:45:02.095Z,134.00
2023-05-19T10:46:02.048Z,132.00
2023-05-19T10:47:02.169Z,162.00
2023-05-19T10:48:02.047Z,252.00
2023-05-19T10:49:02.035Z,52.00
2023-05-19T10:50:02.053Z,33.00
2023-05-19T10:51:02.027Z,24.00
2023-05-19T10:52:02.022Z,48.00
2023-05-19T10:53:01.996Z,115.00
2023-05-19T10:54:02.052Z,174.00
2023-05-19T10:55:01.996Z,122.00
2023-05-19T10:56:01.962Z,133.00
2023-05-19T10:57:01.955Z,253.00
2023-05-19T10:58:01.939Z,29.00
2023-05-19T10:59:01.966Z,81.00
2023-05-19T11:00:01.910Z,58.00
2023-05-19T11:01:01.912Z,23.00
2023-05-19T11:02:01.914Z,46.00
2023-05-19T11:03:01.923Z,37.00
2023-05-19T11:04:01.920Z,221.00
2023-05-19T11:05:01.873Z,41.00
2023-05-19T11:06:01.844Z,59.00
2023-05-19T11:07:01.850Z,139.00
2023-05-19T11:08:01.860Z,140.00
2023-05-19T11:09:01.900Z,139.00
2023-05-19T11:10:01.820Z,132.00
2023-05-19T11:11:01.820Z,123.00
2023-05-19T11:12:01.793Z,117.00
2023-05-19T11:13:01.798Z,128.00
2023-05-19T11:14:01.795Z,273.00
2023-05-19T11:15:01.776Z,79.00
2023-05-19T11:16:01.744Z,52.00
2023-05-19T11:17:01.814Z,155.00
2023-05-19T11:18:01.805Z,68.00
2023-05-19T11:19:01.798Z,133.00
2023-05-19T11:20:01.711Z,138.00
2023-05-19T11:21:01.705Z,146.00
2023-05-19T11:22:01.735Z,125.00
2023-05-19T11:23:01.761Z,268.00
2023-05-19T11:24:01.730Z,98.00
2023-05-19T11:25:01.651Z,87.00
2023-05-19T11:26:01.665Z,45.00
2023-05-19T11:27:01.647Z,33.00
2023-05-19T11:28:01.625Z,45.00
2023-05-19T11:29:01.609Z,64.00
2023-05-19T11:30:01.611Z,129.00
2023-05-19T11:31:01.585Z,237.00
2023-05-19T11:32:01.631Z,43.00
2023-05-19T11:33:01.596Z,115.00
2023-05-19T11:34:01.554Z,106.00
2023-05-19T11:35:01.561Z,93.00
2023-05-19T11:36:01.549Z,97.00
2023-05-19T11:37:01.543Z,88.00
2023-05-19T11:38:01.511Z,86.00
2023-05-19T11:39:01.513Z,72.00
2023-05-19T11:40:01.536Z,104.00
2023-05-19T11:41:01.502Z,76.00
2023-05-19T11:42:01.470Z,103.00
2023-05-19T11:43:01.468Z,98.00
2023-05-19T11:44:01.458Z,97.00
2023-05-19T11:45:01.458Z,108.00
2023-05-19T11:46:01.510Z,96.00
2023-05-19T11:47:01.422Z,77.00
2023-05-19T11:48:03.068Z,78.00
2023-05-19T11:49:01.405Z,76.00
2023-05-19T11:50:01.423Z,78.00
2023-05-19T11:51:01.422Z,77.00
2023-05-19T11:52:01.365Z,75.00
2023-05-19T11:53:01.680Z,76.00
2023-05-19T11:54:01.337Z,81.00
2023-05-19T11:55:01.363Z,72.00
2023-05-19T11:56:01.318Z,63.00
2023-05-19T11:57:01.318Z,66.00
2023-05-19T11:58:05.168Z,63.00
2023-05-19T11:59:01.306Z,64.00
2023-05-19T12:00:01.315Z,72.00
2023-05-19T12:01:01.269Z,70.00
2023-05-19T12:02:01.272Z,66.00
2023-05-19T12:03:01.362Z,71.00
2023-05-19T12:04:01.264Z,79.00
2023-05-19T12:05:01.297Z,77.00
2023-05-19T12:06:01.251Z,84.00
2023-05-19T12:07:01.204Z,94.00
2023-05-19T12:08:01.203Z,91.00
2023-05-19T12:09:01.199Z,44.00
2023-05-19T12:10:01.216Z,80.00
2023-05-19T12:11:01.177Z,81.00
2023-05-19T12:12:01.182Z,64.00
2023-05-19T12:13:01.146Z,76.00
2023-05-19T12:14:01.169Z,77.00
2023-05-19T12:15:01.121Z,57.00
2023-05-19T12:16:01.149Z,68.00
2023-05-19T12:17:01.113Z,90.00
2023-05-19T12:18:01.127Z,76.00
2023-05-19T12:19:01.157Z,60.00
2023-05-19T12:20:01.072Z,53.00
2023-05-19T12:21:01.079Z,74.00
2023-05-19T12:22:02.228Z,65.00
2023-05-19T12:23:01.204Z,64.00
2023-05-19T12:24:01.064Z,113.00
2023-05-19T12:25:01.025Z,33.00
2023-05-19T12:26:01.007Z,42.00
2023-05-19T12:27:00.999Z,68.00
2023-05-19T12:28:01.033Z,76.00
2023-05-19T12:29:00.986Z,70.00
2023-05-19T12:30:00.968Z,70.00
2023-05-19T12:31:00.955Z,67.00
2023-05-19T12:32:01.025Z,79.00
2023-05-19T12:33:00.985Z,64.00
2023-05-19T12:34:00.922Z,62.00
2023-05-19T12:35:00.919Z,59.00
2023-05-19T12:36:00.896Z,69.00
2023-05-19T12:37:00.965Z,74.00
2023-05-19T12:38:00.879Z,76.00
2023-05-19T12:39:00.879Z,88.00
2023-05-19T12:40:00.869Z,43.00
2023-05-19T12:41:00.847Z,74.00
2023-05-19T12:42:00.887Z,82.00
2023-05-19T12:43:00.830Z,84.00
2023-05-19T12:44:00.810Z,98.00
2023-05-19T12:45:02.962Z,38.00
2023-05-19T12:46:00.880Z,65.00
2023-05-19T12:47:00.803Z,138.00
2023-05-19T12:48:00.846Z,58.00
2023-05-19T12:49:00.799Z,31.00
2023-05-19T12:50:00.765Z,26.00
2023-05-19T12:51:00.787Z,36.00
2023-05-19T12:52:02.649Z,42.00
2023-05-19T12:53:00.728Z,54.00
2023-05-19T12:54:00.718Z,47.00
2023-05-19T12:55:00.762Z,55.00
2023-05-19T12:56:00.719Z,87.00
2023-05-19T12:57:00.683Z,82.00
2023-05-19T12:58:00.706Z,88.00
2023-05-19T12:59:00.658Z,68.00
2023-05-19T13:00:00.689Z,69.00
2023-05-19T13:01:00.784Z,58.00